sensor_id;sensor_type;location;lat;lon;timestamp;P1;durP1;ratioP1;P2;durP2;ratioP2
5209;SDS011;2624;48.048;11.706;2024-03-02T00:04:16;5.00;;;3.40;;
5209;SDS011;2624;48.048;11.706;2024-03-02T00:09:18;5.23;;;3.83;;
5209;SDS011;2624;48.048;11.706;2024-03-02T00:14:21;7.00;;;4.27;;
5209;SDS011;2624;48.048;11.706;2024-03-02T00:19:24;5.43;;;4.93;;
5209;SDS011;2624;48.048;11.706;2024-03-02T00:24:28;8.10;;;4.63;;
5209;SDS011;2624;48.048;11.706;2024-03-02T00:29:36;6.80;;;4.30;;
5209;SDS011;2624;48.048;11.706;2024-03-02T00:34:38;5.17;;;4.40;;
5209;SDS011;2624;48.048;11.706;2024-03-02T00:39:39;6.90;;;4.10;;
5209;SDS011;2624;48.048;11.706;2024-03-02T00:44:43;8.43;;;4.30;;
5209;SDS011;2624;48.048;11.706;2024-03-02T00:49:44;5.27;;;4.47;;
5209;SDS011;2624;48.048;11.706;2024-03-02T00:54:48;6.50;;;4.50;;
5209;SDS011;2624;48.048;11.706;2024-03-02T00:59:59;6.13;;;5.10;;
5209;SDS011;2624;48.048;11.706;2024-03-02T01:05:01;4.90;;;4.50;;
5209;SDS011;2624;48.048;11.706;2024-03-02T01:10:03;8.00;;;5.30;;
5209;SDS011;2624;48.048;11.706;2024-03-02T01:15:07;5.37;;;4.40;;
5209;SDS011;2624;48.048;11.706;2024-03-02T01:20:10;10.90;;;5.20;;
5209;SDS011;2624;48.048;11.706;2024-03-02T01:25:12;5.50;;;4.60;;
5209;SDS011;2624;48.048;11.706;2024-03-02T01:30:15;4.97;;;4.50;;
5209;SDS011;2624;48.048;11.706;2024-03-02T01:35:17;6.00;;;4.40;;
5209;SDS011;2624;48.048;11.706;2024-03-02T01:40:19;8.57;;;5.57;;
5209;SDS011;2624;48.048;11.706;2024-03-02T01:45:22;6.93;;;5.13;;
5209;SDS011;2624;48.048;11.706;2024-03-02T01:50:24;5.67;;;4.60;;
5209;SDS011;2624;48.048;11.706;2024-03-02T01:55:27;4.47;;;3.80;;
5209;SDS011;2624;48.048;11.706;2024-03-02T02:00:31;3.93;;;3.40;;
5209;SDS011;2624;48.048;11.706;2024-03-02T02:05:33;2.40;;;2.10;;
5209;SDS011;2624;48.048;11.706;2024-03-02T02:10:36;3.60;;;3.30;;
5209;SDS011;2624;48.048;11.706;2024-03-02T02:15:39;5.23;;;3.90;;
5209;SDS011;2624;48.048;11.706;2024-03-02T02:20:41;3.97;;;3.47;;
5209;SDS011;2624;48.048;11.706;2024-03-02T02:25:45;2.90;;;2.70;;
5209;SDS011;2624;48.048;11.706;2024-03-02T02:30:46;6.70;;;3.60;;
5209;SDS011;2624;48.048;11.706;2024-03-02T02:35:48;11.27;;;4.47;;
5209;SDS011;2624;48.048;11.706;2024-03-02T02:40:51;4.13;;;3.73;;
5209;SDS011;2624;48.048;11.706;2024-03-02T02:45:53;4.43;;;3.67;;
5209;SDS011;2624;48.048;11.706;2024-03-02T02:50:55;3.30;;;3.00;;
5209;SDS011;2624;48.048;11.706;2024-03-02T02:55:58;3.73;;;3.20;;
5209;SDS011;2624;48.048;11.706;2024-03-02T03:00:59;5.97;;;4.60;;
5209;SDS011;2624;48.048;11.706;2024-03-02T03:06:01;4.13;;;3.47;;
5209;SDS011;2624;48.048;11.706;2024-03-02T03:11:05;2.80;;;2.60;;
5209;SDS011;2624;48.048;11.706;2024-03-02T03:16:06;3.53;;;2.67;;
5209;SDS011;2624;48.048;11.706;2024-03-02T03:21:08;3.67;;;3.07;;
5209;SDS011;2624;48.048;11.706;2024-03-02T03:26:11;3.07;;;2.87;;
5209;SDS011;2624;48.048;11.706;2024-03-02T03:31:13;3.90;;;3.30;;
5209;SDS011;2624;48.048;11.706;2024-03-02T03:36:15;5.00;;;3.73;;
5209;SDS011;2624;48.048;11.706;2024-03-02T03:41:18;3.10;;;2.80;;
5209;SDS011;2624;48.048;11.706;2024-03-02T03:46:20;5.27;;;3.63;;
5209;SDS011;2624;48.048;11.706;2024-03-02T03:51:21;3.53;;;3.20;;
5209;SDS011;2624;48.048;11.706;2024-03-02T03:56:25;6.13;;;3.60;;
5209;SDS011;2624;48.048;11.706;2024-03-02T04:01:27;4.13;;;3.20;;
5209;SDS011;2624;48.048;11.706;2024-03-02T04:06:28;7.77;;;4.47;;
5209;SDS011;2624;48.048;11.706;2024-03-02T04:11:31;6.07;;;4.57;;
5209;SDS011;2624;48.048;11.706;2024-03-02T04:16:33;4.40;;;3.83;;
5209;SDS011;2624;48.048;11.706;2024-03-02T04:21:35;9.43;;;5.00;;
5209;SDS011;2624;48.048;11.706;2024-03-02T04:26:38;6.20;;;5.17;;
5209;SDS011;2624;48.048;11.706;2024-03-02T04:31:40;6.07;;;5.47;;
5209;SDS011;2624;48.048;11.706;2024-03-02T04:36:41;6.40;;;4.27;;
5209;SDS011;2624;48.048;11.706;2024-03-02T04:41:45;6.73;;;4.70;;
5209;SDS011;2624;48.048;11.706;2024-03-02T04:46:47;6.60;;;5.63;;
5209;SDS011;2624;48.048;11.706;2024-03-02T04:51:49;4.37;;;3.80;;
5209;SDS011;2624;48.048;11.706;2024-03-02T04:56:52;5.23;;;4.23;;
5209;SDS011;2624;48.048;11.706;2024-03-02T05:01:54;5.63;;;3.53;;
5209;SDS011;2624;48.048;11.706;2024-03-02T05:06:56;4.50;;;3.17;;
5209;SDS011;2624;48.048;11.706;2024-03-02T05:11:59;5.20;;;4.30;;
5209;SDS011;2624;48.048;11.706;2024-03-02T05:17:22;4.77;;;3.57;;
5209;SDS011;2624;48.048;11.706;2024-03-02T05:22:24;4.97;;;3.60;;
5209;SDS011;2624;48.048;11.706;2024-03-02T05:27:27;3.70;;;3.23;;
5209;SDS011;2624;48.048;11.706;2024-03-02T05:32:29;4.63;;;4.10;;
5209;SDS011;2624;48.048;11.706;2024-03-02T05:37:31;8.00;;;4.27;;
5209;SDS011;2624;48.048;11.706;2024-03-02T05:42:34;8.47;;;6.03;;
5209;SDS011;2624;48.048;11.706;2024-03-02T05:47:36;7.37;;;4.83;;
5209;SDS011;2624;48.048;11.706;2024-03-02T05:52:38;11.97;;;4.47;;
5209;SDS011;2624;48.048;11.706;2024-03-02T05:57:41;8.57;;;5.80;;
5209;SDS011;2624;48.048;11.706;2024-03-02T06:02:59;8.03;;;5.37;;
5209;SDS011;2624;48.048;11.706;2024-03-02T06:08:00;7.90;;;5.87;;
5209;SDS011;2624;48.048;11.706;2024-03-02T06:13:03;8.23;;;6.07;;
5209;SDS011;2624;48.048;11.706;2024-03-02T06:18:05;8.27;;;6.30;;
5209;SDS011;2624;48.048;11.706;2024-03-02T06:23:07;11.47;;;7.27;;
5209;SDS011;2624;48.048;11.706;2024-03-02T06:28:11;11.43;;;7.60;;
5209;SDS011;2624;48.048;11.706;2024-03-02T06:33:15;13.03;;;6.63;;
5209;SDS011;2624;48.048;11.706;2024-03-02T06:38:17;9.83;;;6.10;;
5209;SDS011;2624;48.048;11.706;2024-03-02T06:43:20;11.20;;;6.53;;
5209;SDS011;2624;48.048;11.706;2024-03-02T06:48:23;9.87;;;5.57;;
5209;SDS011;2624;48.048;11.706;2024-03-02T06:53:25;10.97;;;6.50;;
5209;SDS011;2624;48.048;11.706;2024-03-02T06:58:28;9.70;;;7.37;;
5209;SDS011;2624;48.048;11.706;2024-03-02T07:03:30;10.53;;;7.67;;
5209;SDS011;2624;48.048;11.706;2024-03-02T07:08:33;8.30;;;5.90;;
5209;SDS011;2624;48.048;11.706;2024-03-02T07:13:36;9.07;;;6.50;;
5209;SDS011;2624;48.048;11.706;2024-03-02T07:18:38;14.97;;;6.90;;
5209;SDS011;2624;48.048;11.706;2024-03-02T07:23:41;15.50;;;8.10;;
5209;SDS011;2624;48.048;11.706;2024-03-02T07:28:44;15.83;;;7.17;;
5209;SDS011;2624;48.048;11.706;2024-03-02T07:33:47;12.50;;;7.47;;
5209;SDS011;2624;48.048;11.706;2024-03-02T07:38:49;12.73;;;7.83;;
5209;SDS011;2624;48.048;11.706;2024-03-02T07:43:52;19.60;;;9.10;;
5209;SDS011;2624;48.048;11.706;2024-03-02T07:48:54;17.00;;;8.20;;
5209;SDS011;2624;48.048;11.706;2024-03-02T07:53:56;13.70;;;5.33;;
5209;SDS011;2624;48.048;11.706;2024-03-02T07:58:59;14.37;;;6.27;;
5209;SDS011;2624;48.048;11.706;2024-03-02T08:04:02;11.17;;;5.17;;
5209;SDS011;2624;48.048;11.706;2024-03-02T08:09:04;11.10;;;5.60;;
5209;SDS011;2624;48.048;11.706;2024-03-02T08:14:11;8.43;;;5.57;;
5209;SDS011;2624;48.048;11.706;2024-03-02T08:19:12;9.70;;;6.27;;
5209;SDS011;2624;48.048;11.706;2024-03-02T08:24:14;11.70;;;7.27;;
5209;SDS011;2624;48.048;11.706;2024-03-02T08:29:17;13.40;;;7.60;;
5209;SDS011;2624;48.048;11.706;2024-03-02T08:34:19;33.43;;;5.90;;
5209;SDS011;2624;48.048;11.706;2024-03-02T08:39:21;11.90;;;6.40;;
5209;SDS011;2624;48.048;11.706;2024-03-02T08:44:24;10.60;;;6.20;;
5209;SDS011;2624;48.048;11.706;2024-03-02T08:49:26;8.43;;;5.13;;
5209;SDS011;2624;48.048;11.706;2024-03-02T08:54:28;10.60;;;5.40;;
5209;SDS011;2624;48.048;11.706;2024-03-02T08:59:31;14.13;;;7.30;;
5209;SDS011;2624;48.048;11.706;2024-03-02T09:04:33;7.20;;;4.20;;
5209;SDS011;2624;48.048;11.706;2024-03-02T09:09:35;8.27;;;4.37;;
5209;SDS011;2624;48.048;11.706;2024-03-02T09:14:40;5.00;;;3.60;;
5209;SDS011;2624;48.048;11.706;2024-03-02T09:19:42;19.90;;;5.30;;
5209;SDS011;2624;48.048;11.706;2024-03-02T09:24:43;13.90;;;6.50;;
5209;SDS011;2624;48.048;11.706;2024-03-02T09:29:46;13.93;;;7.20;;
5209;SDS011;2624;48.048;11.706;2024-03-02T09:34:48;18.90;;;9.50;;
5209;SDS011;2624;48.048;11.706;2024-03-02T09:39:50;22.80;;;10.40;;
5209;SDS011;2624;48.048;11.706;2024-03-02T09:44:53;24.20;;;10.43;;
5209;SDS011;2624;48.048;11.706;2024-03-02T09:49:55;19.57;;;10.20;;
5209;SDS011;2624;48.048;11.706;2024-03-02T09:54:56;14.97;;;8.87;;
5209;SDS011;2624;48.048;11.706;2024-03-02T10:00:00;24.73;;;10.57;;
5209;SDS011;2624;48.048;11.706;2024-03-02T10:05:02;24.40;;;9.30;;
5209;SDS011;2624;48.048;11.706;2024-03-02T10:10:13;23.23;;;11.73;;
5209;SDS011;2624;48.048;11.706;2024-03-02T10:15:24;15.63;;;8.03;;
5209;SDS011;2624;48.048;11.706;2024-03-02T10:20:26;17.67;;;8.00;;
5209;SDS011;2624;48.048;11.706;2024-03-02T10:25:30;18.33;;;10.20;;
5209;SDS011;2624;48.048;11.706;2024-03-02T10:30:34;20.93;;;9.50;;
5209;SDS011;2624;48.048;11.706;2024-03-02T10:35:36;12.00;;;5.40;;
5209;SDS011;2624;48.048;11.706;2024-03-02T10:40:40;14.37;;;7.90;;
5209;SDS011;2624;48.048;11.706;2024-03-02T10:45:44;16.00;;;7.43;;
5209;SDS011;2624;48.048;11.706;2024-03-02T10:50:50;16.27;;;8.10;;
5209;SDS011;2624;48.048;11.706;2024-03-02T10:55:54;19.33;;;9.53;;
5209;SDS011;2624;48.048;11.706;2024-03-02T11:01:03;14.03;;;7.63;;
5209;SDS011;2624;48.048;11.706;2024-03-02T11:06:08;12.47;;;6.60;;
5209;SDS011;2624;48.048;11.706;2024-03-02T11:11:14;10.90;;;6.00;;
5209;SDS011;2624;48.048;11.706;2024-03-02T11:16:26;17.83;;;6.37;;
5209;SDS011;2624;48.048;11.706;2024-03-02T11:21:35;11.37;;;6.07;;
5209;SDS011;2624;48.048;11.706;2024-03-02T11:26:38;15.73;;;7.30;;
5209;SDS011;2624;48.048;11.706;2024-03-02T11:37:01;16.07;;;6.60;;
5209;SDS011;2624;48.048;11.706;2024-03-02T11:42:05;10.63;;;5.67;;
5209;SDS011;2624;48.048;11.706;2024-03-02T11:47:10;12.57;;;6.20;;
5209;SDS011;2624;48.048;11.706;2024-03-02T11:52:14;13.67;;;5.50;;
5209;SDS011;2624;48.048;11.706;2024-03-02T11:57:18;7.50;;;4.80;;
5209;SDS011;2624;48.048;11.706;2024-03-02T12:02:23;10.70;;;5.63;;
5209;SDS011;2624;48.048;11.706;2024-03-02T12:07:25;4.47;;;3.33;;
5209;SDS011;2624;48.048;11.706;2024-03-02T12:12:27;5.50;;;3.97;;
5209;SDS011;2624;48.048;11.706;2024-03-02T12:17:30;10.77;;;4.17;;
5209;SDS011;2624;48.048;11.706;2024-03-02T12:22:32;8.53;;;5.40;;
5209;SDS011;2624;48.048;11.706;2024-03-02T12:27:34;10.50;;;5.43;;
5209;SDS011;2624;48.048;11.706;2024-03-02T12:32:37;13.73;;;5.73;;
5209;SDS011;2624;48.048;11.706;2024-03-02T12:37:42;7.00;;;4.80;;
5209;SDS011;2624;48.048;11.706;2024-03-02T12:42:45;7.67;;;4.73;;
5209;SDS011;2624;48.048;11.706;2024-03-02T12:47:49;5.87;;;3.30;;
5209;SDS011;2624;48.048;11.706;2024-03-02T12:52:52;4.83;;;4.33;;
5209;SDS011;2624;48.048;11.706;2024-03-02T12:57:54;6.93;;;4.43;;
5209;SDS011;2624;48.048;11.706;2024-03-02T13:02:58;7.43;;;4.40;;
5209;SDS011;2624;48.048;11.706;2024-03-02T13:08:02;10.23;;;5.10;;
5209;SDS011;2624;48.048;11.706;2024-03-02T13:13:04;10.30;;;5.73;;
5209;SDS011;2624;48.048;11.706;2024-03-02T13:18:08;10.73;;;5.40;;
5209;SDS011;2624;48.048;11.706;2024-03-02T13:23:10;13.20;;;6.43;;
5209;SDS011;2624;48.048;11.706;2024-03-02T13:28:12;12.23;;;6.57;;
5209;SDS011;2624;48.048;11.706;2024-03-02T13:33:15;13.60;;;6.93;;
5209;SDS011;2624;48.048;11.706;2024-03-02T13:38:22;15.90;;;8.40;;
5209;SDS011;2624;48.048;11.706;2024-03-02T13:43:23;15.70;;;7.57;;
5209;SDS011;2624;48.048;11.706;2024-03-02T13:48:27;18.67;;;8.50;;
5209;SDS011;2624;48.048;11.706;2024-03-02T13:53:28;16.40;;;8.07;;
5209;SDS011;2624;48.048;11.706;2024-03-02T13:58:32;8.40;;;5.90;;
5209;SDS011;2624;48.048;11.706;2024-03-02T14:03:35;7.23;;;5.23;;
5209;SDS011;2624;48.048;11.706;2024-03-02T14:08:37;15.23;;;5.20;;
5209;SDS011;2624;48.048;11.706;2024-03-02T14:13:38;10.53;;;5.03;;
5209;SDS011;2624;48.048;11.706;2024-03-02T14:18:42;6.23;;;4.23;;
5209;SDS011;2624;48.048;11.706;2024-03-02T14:23:43;9.67;;;5.07;;
5209;SDS011;2624;48.048;11.706;2024-03-02T14:28:45;14.33;;;6.20;;
5209;SDS011;2624;48.048;11.706;2024-03-02T14:33:48;14.10;;;7.03;;
5209;SDS011;2624;48.048;11.706;2024-03-02T14:38:50;9.10;;;5.50;;
5209;SDS011;2624;48.048;11.706;2024-03-02T14:43:52;11.80;;;7.03;;
5209;SDS011;2624;48.048;11.706;2024-03-02T14:48:55;16.60;;;8.00;;
5209;SDS011;2624;48.048;11.706;2024-03-02T14:53:58;13.97;;;6.80;;
5209;SDS011;2624;48.048;11.706;2024-03-02T14:58:59;14.93;;;7.00;;
5209;SDS011;2624;48.048;11.706;2024-03-02T15:04:03;12.93;;;7.27;;
5209;SDS011;2624;48.048;11.706;2024-03-02T15:09:05;13.57;;;7.77;;
5209;SDS011;2624;48.048;11.706;2024-03-02T15:14:07;16.77;;;9.40;;
5209;SDS011;2624;48.048;11.706;2024-03-02T15:19:10;19.40;;;10.10;;
5209;SDS011;2624;48.048;11.706;2024-03-02T15:24:12;16.10;;;8.80;;
5209;SDS011;2624;48.048;11.706;2024-03-02T15:29:14;20.60;;;10.03;;
5209;SDS011;2624;48.048;11.706;2024-03-02T15:34:17;25.33;;;11.23;;
5209;SDS011;2624;48.048;11.706;2024-03-02T15:39:19;19.70;;;10.93;;
5209;SDS011;2624;48.048;11.706;2024-03-02T15:44:20;19.30;;;8.30;;
5209;SDS011;2624;48.048;11.706;2024-03-02T15:49:24;16.87;;;8.80;;
5209;SDS011;2624;48.048;11.706;2024-03-02T15:54:26;17.27;;;9.27;;
5209;SDS011;2624;48.048;11.706;2024-03-02T15:59:27;14.23;;;7.57;;
5209;SDS011;2624;48.048;11.706;2024-03-02T16:04:31;13.27;;;7.90;;
5209;SDS011;2624;48.048;11.706;2024-03-02T16:09:33;18.00;;;9.87;;
5209;SDS011;2624;48.048;11.706;2024-03-02T16:14:35;15.50;;;8.63;;
5209;SDS011;2624;48.048;11.706;2024-03-02T16:19:38;18.33;;;9.10;;
5209;SDS011;2624;48.048;11.706;2024-03-02T16:24:40;15.97;;;9.13;;
5209;SDS011;2624;48.048;11.706;2024-03-02T16:29:42;27.30;;;11.80;;
5209;SDS011;2624;48.048;11.706;2024-03-02T16:34:45;19.60;;;10.30;;
5209;SDS011;2624;48.048;11.706;2024-03-02T16:39:47;25.53;;;10.93;;
5209;SDS011;2624;48.048;11.706;2024-03-02T16:44:49;20.77;;;8.60;;
5209;SDS011;2624;48.048;11.706;2024-03-02T16:49:56;15.27;;;9.63;;
5209;SDS011;2624;48.048;11.706;2024-03-02T16:54:58;20.60;;;9.10;;
5209;SDS011;2624;48.048;11.706;2024-03-02T17:00:00;19.93;;;10.30;;
5209;SDS011;2624;48.048;11.706;2024-03-02T17:05:04;19.97;;;10.60;;
5209;SDS011;2624;48.048;11.706;2024-03-02T17:10:06;24.97;;;10.47;;
5209;SDS011;2624;48.048;11.706;2024-03-02T17:15:09;25.00;;;9.77;;
5209;SDS011;2624;48.048;11.706;2024-03-02T17:20:12;20.90;;;9.00;;
5209;SDS011;2624;48.048;11.706;2024-03-02T17:25:15;18.73;;;9.67;;
5209;SDS011;2624;48.048;11.706;2024-03-02T17:30:16;21.23;;;9.83;;
5209;SDS011;2624;48.048;11.706;2024-03-02T17:35:22;16.97;;;8.33;;
5209;SDS011;2624;48.048;11.706;2024-03-02T17:40:24;15.00;;;8.47;;
5209;SDS011;2624;48.048;11.706;2024-03-02T17:45:26;26.87;;;11.47;;
5209;SDS011;2624;48.048;11.706;2024-03-02T17:50:29;23.90;;;10.40;;
5209;SDS011;2624;48.048;11.706;2024-03-02T17:55:31;19.90;;;9.60;;
5209;SDS011;2624;48.048;11.706;2024-03-02T18:00:33;20.30;;;10.00;;
5209;SDS011;2624;48.048;11.706;2024-03-02T18:05:36;20.80;;;10.33;;
5209;SDS011;2624;48.048;11.706;2024-03-02T18:10:37;26.90;;;10.63;;
5209;SDS011;2624;48.048;11.706;2024-03-02T18:15:39;26.43;;;11.60;;
5209;SDS011;2624;48.048;11.706;2024-03-02T18:20:42;23.50;;;10.00;;
5209;SDS011;2624;48.048;11.706;2024-03-02T18:25:45;19.77;;;10.60;;
5209;SDS011;2624;48.048;11.706;2024-03-02T18:30:47;23.57;;;10.93;;
5209;SDS011;2624;48.048;11.706;2024-03-02T18:35:50;33.00;;;11.60;;
5209;SDS011;2624;48.048;11.706;2024-03-02T18:40:52;27.27;;;11.97;;
5209;SDS011;2624;48.048;11.706;2024-03-02T18:45:53;32.17;;;13.40;;
5209;SDS011;2624;48.048;11.706;2024-03-02T18:50:57;25.27;;;11.53;;
5209;SDS011;2624;48.048;11.706;2024-03-02T18:55:59;29.03;;;13.27;;
5209;SDS011;2624;48.048;11.706;2024-03-02T19:01:01;29.30;;;13.53;;
5209;SDS011;2624;48.048;11.706;2024-03-02T19:06:04;29.73;;;12.93;;
5209;SDS011;2624;48.048;11.706;2024-03-02T19:11:11;24.73;;;10.40;;
5209;SDS011;2624;48.048;11.706;2024-03-02T19:16:14;22.90;;;11.70;;
5209;SDS011;2624;48.048;11.706;2024-03-02T19:21:17;26.93;;;10.47;;
5209;SDS011;2624;48.048;11.706;2024-03-02T19:26:19;24.93;;;9.90;;
5209;SDS011;2624;48.048;11.706;2024-03-02T19:31:21;20.77;;;10.40;;
5209;SDS011;2624;48.048;11.706;2024-03-02T19:36:24;24.40;;;11.50;;
5209;SDS011;2624;48.048;11.706;2024-03-02T19:41:28;28.90;;;11.10;;
5209;SDS011;2624;48.048;11.706;2024-03-02T19:46:29;32.10;;;13.93;;
5209;SDS011;2624;48.048;11.706;2024-03-02T19:51:32;23.43;;;11.27;;
5209;SDS011;2624;48.048;11.706;2024-03-02T19:56:34;22.20;;;10.67;;
5209;SDS011;2624;48.048;11.706;2024-03-02T20:01:37;23.43;;;11.30;;
5209;SDS011;2624;48.048;11.706;2024-03-02T20:06:41;21.27;;;9.07;;
5209;SDS011;2624;48.048;11.706;2024-03-02T20:11:43;24.67;;;9.67;;
5209;SDS011;2624;48.048;11.706;2024-03-02T20:16:44;18.10;;;9.20;;
5209;SDS011;2624;48.048;11.706;2024-03-02T20:21:48;23.67;;;10.50;;
5209;SDS011;2624;48.048;11.706;2024-03-02T20:26:49;23.50;;;11.77;;
5209;SDS011;2624;48.048;11.706;2024-03-02T20:31:51;23.23;;;10.80;;
5209;SDS011;2624;48.048;11.706;2024-03-02T20:36:56;28.80;;;12.33;;
5209;SDS011;2624;48.048;11.706;2024-03-02T20:42:00;33.60;;;12.23;;
5209;SDS011;2624;48.048;11.706;2024-03-02T20:47:03;22.07;;;10.47;;
5209;SDS011;2624;48.048;11.706;2024-03-02T20:52:06;30.40;;;13.13;;
5209;SDS011;2624;48.048;11.706;2024-03-02T20:57:08;27.90;;;13.70;;
5209;SDS011;2624;48.048;11.706;2024-03-02T21:02:10;33.00;;;11.77;;
5209;SDS011;2624;48.048;11.706;2024-03-02T21:07:13;22.50;;;8.87;;
5209;SDS011;2624;48.048;11.706;2024-03-02T21:12:15;29.03;;;11.47;;
5209;SDS011;2624;48.048;11.706;2024-03-02T21:17:17;28.50;;;10.60;;
5209;SDS011;2624;48.048;11.706;2024-03-02T21:22:20;20.30;;;9.83;;
5209;SDS011;2624;48.048;11.706;2024-03-02T21:27:22;27.23;;;13.27;;
5209;SDS011;2624;48.048;11.706;2024-03-02T21:32:23;22.20;;;12.70;;
5209;SDS011;2624;48.048;11.706;2024-03-02T21:37:27;27.83;;;12.90;;
5209;SDS011;2624;48.048;11.706;2024-03-02T21:42:28;29.90;;;13.30;;
5209;SDS011;2624;48.048;11.706;2024-03-02T21:47:30;24.13;;;11.70;;
5209;SDS011;2624;48.048;11.706;2024-03-02T21:52:33;24.07;;;12.97;;
5209;SDS011;2624;48.048;11.706;2024-03-02T21:57:35;36.13;;;13.00;;
5209;SDS011;2624;48.048;11.706;2024-03-02T22:02:37;21.43;;;10.43;;
5209;SDS011;2624;48.048;11.706;2024-03-02T22:07:40;35.03;;;12.07;;
5209;SDS011;2624;48.048;11.706;2024-03-02T22:12:42;25.33;;;10.60;;
5209;SDS011;2624;48.048;11.706;2024-03-02T22:17:44;31.40;;;11.70;;
5209;SDS011;2624;48.048;11.706;2024-03-02T22:22:47;24.97;;;10.10;;
5209;SDS011;2624;48.048;11.706;2024-03-02T22:27:48;24.00;;;11.57;;
5209;SDS011;2624;48.048;11.706;2024-03-02T22:32:55;34.07;;;12.80;;
5209;SDS011;2624;48.048;11.706;2024-03-02T22:37:58;24.93;;;11.90;;
5209;SDS011;2624;48.048;11.706;2024-03-02T22:43:00;27.60;;;13.57;;
5209;SDS011;2624;48.048;11.706;2024-03-02T22:48:02;27.17;;;12.80;;
5209;SDS011;2624;48.048;11.706;2024-03-02T22:53:05;31.03;;;14.20;;
5209;SDS011;2624;48.048;11.706;2024-03-02T22:58:07;36.53;;;14.00;;
5209;SDS011;2624;48.048;11.706;2024-03-02T23:03:08;23.53;;;12.33;;
5209;SDS011;2624;48.048;11.706;2024-03-02T23:08:11;31.13;;;13.83;;
5209;SDS011;2624;48.048;11.706;2024-03-02T23:13:13;29.70;;;13.13;;
5209;SDS011;2624;48.048;11.706;2024-03-02T23:18:15;33.10;;;13.80;;
5209;SDS011;2624;48.048;11.706;2024-03-02T23:23:18;34.07;;;13.27;;
5209;SDS011;2624;48.048;11.706;2024-03-02T23:28:20;27.67;;;12.67;;
5209;SDS011;2624;48.048;11.706;2024-03-02T23:33:22;25.70;;;12.50;;
5209;SDS011;2624;48.048;11.706;2024-03-02T23:38:25;26.57;;;12.10;;
5209;SDS011;2624;48.048;11.706;2024-03-02T23:43:26;30.17;;;13.33;;
5209;SDS011;2624;48.048;11.706;2024-03-02T23:48:29;22.83;;;11.50;;
5209;SDS011;2624;48.048;11.706;2024-03-02T23:53:32;33.53;;;13.13;;
5209;SDS011;2624;48.048;11.706;2024-03-02T23:58:34;38.00;;;13.03;;
